sensor_id;sensor_type;location;lat;lon;timestamp;P1;durP1;ratioP1;P2;durP2;ratioP2
7525;SDS011;3804;50.860;6.208;2022-11-20T00:00:50;32.77;;;20.17;;
7525;SDS011;3804;50.860;6.208;2022-11-20T00:03:17;35.27;;;18.93;;
7525;SDS011;3804;50.860;6.208;2022-11-20T00:05:44;35.87;;;20.23;;
7525;SDS011;3804;50.860;6.208;2022-11-20T00:08:11;32.57;;;19.27;;
7525;SDS011;3804;50.860;6.208;2022-11-20T00:10:40;31.53;;;18.90;;
7525;SDS011;3804;50.860;6.208;2022-11-20T00:13:07;33.07;;;19.13;;
7525;SDS011;3804;50.860;6.208;2022-11-20T00:15:34;31.03;;;19.07;;
7525;SDS011;3804;50.860;6.208;2022-11-20T00:18:01;32.80;;;19.73;;
7525;SDS011;3804;50.860;6.208;2022-11-20T00:20:27;29.40;;;18.27;;
7525;SDS011;3804;50.860;6.208;2022-11-20T00:22:54;32.13;;;18.27;;
7525;SDS011;3804;50.860;6.208;2022-11-20T00:25:21;31.20;;;19.77;;
7525;SDS011;3804;50.860;6.208;2022-11-20T00:27:47;33.03;;;19.40;;
7525;SDS011;3804;50.860;6.208;2022-11-20T00:30:14;31.87;;;18.50;;
7525;SDS011;3804;50.860;6.208;2022-11-20T00:32:41;29.37;;;18.40;;
7525;SDS011;3804;50.860;6.208;2022-11-20T00:35:08;28.97;;;17.77;;
7525;SDS011;3804;50.860;6.208;2022-11-20T00:37:34;30.93;;;18.80;;
7525;SDS011;3804;50.860;6.208;2022-11-20T00:40:01;35.80;;;19.80;;
7525;SDS011;3804;50.860;6.208;2022-11-20T00:42:28;30.17;;;17.87;;
7525;SDS011;3804;50.860;6.208;2022-11-20T00:44:54;30.10;;;18.80;;
7525;SDS011;3804;50.860;6.208;2022-11-20T00:47:21;31.33;;;20.20;;
7525;SDS011;3804;50.860;6.208;2022-11-20T00:49:48;31.93;;;18.90;;
7525;SDS011;3804;50.860;6.208;2022-11-20T00:52:14;33.47;;;18.13;;
7525;SDS011;3804;50.860;6.208;2022-11-20T00:54:41;33.03;;;19.50;;
7525;SDS011;3804;50.860;6.208;2022-11-20T00:57:08;34.33;;;20.23;;
7525;SDS011;3804;50.860;6.208;2022-11-20T00:59:34;32.83;;;18.50;;
7525;SDS011;3804;50.860;6.208;2022-11-20T01:02:01;33.97;;;18.83;;
7525;SDS011;3804;50.860;6.208;2022-11-20T01:04:27;35.43;;;20.20;;
7525;SDS011;3804;50.860;6.208;2022-11-20T01:06:54;36.07;;;19.93;;
7525;SDS011;3804;50.860;6.208;2022-11-20T01:09:21;32.60;;;19.00;;
7525;SDS011;3804;50.860;6.208;2022-11-20T01:11:48;34.77;;;19.23;;
7525;SDS011;3804;50.860;6.208;2022-11-20T01:14:19;33.37;;;19.40;;
7525;SDS011;3804;50.860;6.208;2022-11-20T01:16:47;34.93;;;20.10;;
7525;SDS011;3804;50.860;6.208;2022-11-20T01:19:16;34.77;;;19.97;;
7525;SDS011;3804;50.860;6.208;2022-11-20T01:21:44;30.93;;;18.70;;
7525;SDS011;3804;50.860;6.208;2022-11-20T01:24:12;34.23;;;19.23;;
7525;SDS011;3804;50.860;6.208;2022-11-20T01:26:40;34.10;;;19.83;;
7525;SDS011;3804;50.860;6.208;2022-11-20T01:29:09;32.83;;;19.47;;
7525;SDS011;3804;50.860;6.208;2022-11-20T01:31:37;36.10;;;19.90;;
7525;SDS011;3804;50.860;6.208;2022-11-20T01:34:05;33.93;;;19.40;;
7525;SDS011;3804;50.860;6.208;2022-11-20T01:36:33;33.07;;;19.70;;
7525;SDS011;3804;50.860;6.208;2022-11-20T01:39:00;33.10;;;19.33;;
7525;SDS011;3804;50.860;6.208;2022-11-20T01:41:30;35.23;;;20.47;;
7525;SDS011;3804;50.860;6.208;2022-11-20T01:44:16;31.30;;;19.03;;
7525;SDS011;3804;50.860;6.208;2022-11-20T01:46:57;36.50;;;20.50;;
7525;SDS011;3804;50.860;6.208;2022-11-20T01:49:31;32.97;;;20.40;;
7525;SDS011;3804;50.860;6.208;2022-11-20T01:52:01;34.77;;;20.17;;
7525;SDS011;3804;50.860;6.208;2022-11-20T01:54:33;33.57;;;18.67;;
7525;SDS011;3804;50.860;6.208;2022-11-20T01:57:01;35.27;;;20.10;;
7525;SDS011;3804;50.860;6.208;2022-11-20T01:59:29;36.43;;;20.47;;
7525;SDS011;3804;50.860;6.208;2022-11-20T02:01:56;36.23;;;19.90;;
7525;SDS011;3804;50.860;6.208;2022-11-20T02:04:23;33.40;;;19.20;;
7525;SDS011;3804;50.860;6.208;2022-11-20T02:06:58;34.00;;;19.03;;
7525;SDS011;3804;50.860;6.208;2022-11-20T02:09:26;39.30;;;20.73;;
7525;SDS011;3804;50.860;6.208;2022-11-20T02:11:53;37.60;;;20.67;;
7525;SDS011;3804;50.860;6.208;2022-11-20T02:14:20;37.30;;;21.00;;
7525;SDS011;3804;50.860;6.208;2022-11-20T02:16:48;35.27;;;20.07;;
7525;SDS011;3804;50.860;6.208;2022-11-20T02:19:24;42.17;;;21.53;;
7525;SDS011;3804;50.860;6.208;2022-11-20T02:22:08;36.07;;;20.70;;
7525;SDS011;3804;50.860;6.208;2022-11-20T02:24:36;38.93;;;20.67;;
7525;SDS011;3804;50.860;6.208;2022-11-20T02:27:04;36.47;;;20.77;;
7525;SDS011;3804;50.860;6.208;2022-11-20T02:29:51;37.37;;;21.07;;
7525;SDS011;3804;50.860;6.208;2022-11-20T02:34:48;38.37;;;21.63;;
7525;SDS011;3804;50.860;6.208;2022-11-20T02:37:15;34.80;;;20.47;;
7525;SDS011;3804;50.860;6.208;2022-11-20T02:39:42;34.40;;;20.17;;
7525;SDS011;3804;50.860;6.208;2022-11-20T02:42:10;36.40;;;20.67;;
7525;SDS011;3804;50.860;6.208;2022-11-20T02:44:37;37.87;;;21.47;;
7525;SDS011;3804;50.860;6.208;2022-11-20T02:47:04;35.40;;;21.13;;
7525;SDS011;3804;50.860;6.208;2022-11-20T02:49:31;36.13;;;20.07;;
7525;SDS011;3804;50.860;6.208;2022-11-20T02:51:57;37.27;;;21.50;;
7525;SDS011;3804;50.860;6.208;2022-11-20T02:54:24;37.47;;;20.60;;
7525;SDS011;3804;50.860;6.208;2022-11-20T02:56:51;36.03;;;20.13;;
7525;SDS011;3804;50.860;6.208;2022-11-20T02:59:18;36.70;;;20.10;;
7525;SDS011;3804;50.860;6.208;2022-11-20T03:01:45;39.00;;;21.23;;
7525;SDS011;3804;50.860;6.208;2022-11-20T03:04:12;37.30;;;20.97;;
7525;SDS011;3804;50.860;6.208;2022-11-20T03:06:38;37.20;;;20.30;;
7525;SDS011;3804;50.860;6.208;2022-11-20T03:09:05;37.23;;;20.37;;
7525;SDS011;3804;50.860;6.208;2022-11-20T03:11:32;38.47;;;21.27;;
7525;SDS011;3804;50.860;6.208;2022-11-20T03:14:01;39.80;;;20.87;;
7525;SDS011;3804;50.860;6.208;2022-11-20T03:16:28;35.27;;;20.33;;
7525;SDS011;3804;50.860;6.208;2022-11-20T03:18:55;38.90;;;21.73;;
7525;SDS011;3804;50.860;6.208;2022-11-20T03:21:21;34.37;;;20.07;;
7525;SDS011;3804;50.860;6.208;2022-11-20T03:23:48;37.93;;;20.37;;
7525;SDS011;3804;50.860;6.208;2022-11-20T03:26:20;33.60;;;18.90;;
7525;SDS011;3804;50.860;6.208;2022-11-20T03:28:51;37.73;;;20.17;;
7525;SDS011;3804;50.860;6.208;2022-11-20T03:31:19;35.53;;;19.77;;
7525;SDS011;3804;50.860;6.208;2022-11-20T03:33:46;35.43;;;18.83;;
7525;SDS011;3804;50.860;6.208;2022-11-20T03:36:14;35.77;;;20.07;;
7525;SDS011;3804;50.860;6.208;2022-11-20T03:38:41;38.87;;;21.10;;
7525;SDS011;3804;50.860;6.208;2022-11-20T03:41:30;37.20;;;20.97;;
7525;SDS011;3804;50.860;6.208;2022-11-20T03:43:56;32.93;;;19.23;;
7525;SDS011;3804;50.860;6.208;2022-11-20T03:46:23;36.30;;;20.17;;
7525;SDS011;3804;50.860;6.208;2022-11-20T03:48:50;37.70;;;20.90;;
7525;SDS011;3804;50.860;6.208;2022-11-20T03:53:48;38.00;;;21.57;;
7525;SDS011;3804;50.860;6.208;2022-11-20T03:56:16;36.27;;;21.07;;
7525;SDS011;3804;50.860;6.208;2022-11-20T03:58:43;37.03;;;21.30;;
7525;SDS011;3804;50.860;6.208;2022-11-20T04:01:14;34.83;;;19.63;;
7525;SDS011;3804;50.860;6.208;2022-11-20T04:03:41;35.67;;;20.43;;
7525;SDS011;3804;50.860;6.208;2022-11-20T04:06:12;37.40;;;21.23;;
7525;SDS011;3804;50.860;6.208;2022-11-20T04:08:39;34.97;;;20.87;;
7525;SDS011;3804;50.860;6.208;2022-11-20T04:11:10;35.03;;;20.53;;
7525;SDS011;3804;50.860;6.208;2022-11-20T04:13:37;33.67;;;19.47;;
7525;SDS011;3804;50.860;6.208;2022-11-20T04:16:08;38.17;;;22.50;;
7525;SDS011;3804;50.860;6.208;2022-11-20T04:18:35;35.47;;;20.27;;
7525;SDS011;3804;50.860;6.208;2022-11-20T04:21:02;36.87;;;21.57;;
7525;SDS011;3804;50.860;6.208;2022-11-20T04:23:29;39.57;;;22.80;;
7525;SDS011;3804;50.860;6.208;2022-11-20T04:26:06;36.40;;;22.07;;
7525;SDS011;3804;50.860;6.208;2022-11-20T04:28:33;33.17;;;20.20;;
7525;SDS011;3804;50.860;6.208;2022-11-20T04:31:07;33.00;;;20.10;;
7525;SDS011;3804;50.860;6.208;2022-11-20T04:33:34;32.83;;;18.93;;
7525;SDS011;3804;50.860;6.208;2022-11-20T04:36:05;32.63;;;19.90;;
7525;SDS011;3804;50.860;6.208;2022-11-20T04:38:32;33.37;;;19.77;;
7525;SDS011;3804;50.860;6.208;2022-11-20T04:40:59;32.23;;;21.03;;
7525;SDS011;3804;50.860;6.208;2022-11-20T04:43:26;32.63;;;19.90;;
7525;SDS011;3804;50.860;6.208;2022-11-20T04:45:53;32.97;;;20.47;;
7525;SDS011;3804;50.860;6.208;2022-11-20T04:48:20;32.73;;;20.67;;
7525;SDS011;3804;50.860;6.208;2022-11-20T04:50:47;31.83;;;19.90;;
7525;SDS011;3804;50.860;6.208;2022-11-20T04:53:14;31.13;;;19.80;;
7525;SDS011;3804;50.860;6.208;2022-11-20T04:55:41;29.27;;;19.73;;
7525;SDS011;3804;50.860;6.208;2022-11-20T04:58:07;29.93;;;20.07;;
7525;SDS011;3804;50.860;6.208;2022-11-20T05:00:34;32.03;;;20.13;;
7525;SDS011;3804;50.860;6.208;2022-11-20T05:03:01;32.23;;;19.43;;
7525;SDS011;3804;50.860;6.208;2022-11-20T05:05:28;34.37;;;20.77;;
7525;SDS011;3804;50.860;6.208;2022-11-20T05:07:57;32.30;;;20.93;;
7525;SDS011;3804;50.860;6.208;2022-11-20T05:10:25;32.87;;;21.00;;
7525;SDS011;3804;50.860;6.208;2022-11-20T05:12:51;34.90;;;20.90;;
7525;SDS011;3804;50.860;6.208;2022-11-20T05:15:19;32.87;;;20.77;;
7525;SDS011;3804;50.860;6.208;2022-11-20T05:17:49;33.20;;;21.10;;
7525;SDS011;3804;50.860;6.208;2022-11-20T05:20:16;36.40;;;21.70;;
7525;SDS011;3804;50.860;6.208;2022-11-20T05:22:43;37.17;;;22.57;;
7525;SDS011;3804;50.860;6.208;2022-11-20T05:25:10;35.83;;;22.03;;
7525;SDS011;3804;50.860;6.208;2022-11-20T05:27:38;45.37;;;23.50;;
7525;SDS011;3804;50.860;6.208;2022-11-20T05:30:05;44.23;;;24.03;;
7525;SDS011;3804;50.860;6.208;2022-11-20T05:32:32;47.60;;;24.27;;
7525;SDS011;3804;50.860;6.208;2022-11-20T05:34:58;45.23;;;23.60;;
7525;SDS011;3804;50.860;6.208;2022-11-20T05:37:25;50.47;;;23.93;;
7525;SDS011;3804;50.860;6.208;2022-11-20T05:39:52;47.97;;;25.00;;
7525;SDS011;3804;50.860;6.208;2022-11-20T05:42:19;49.77;;;24.60;;
7525;SDS011;3804;50.860;6.208;2022-11-20T05:44:58;52.07;;;25.23;;
7525;SDS011;3804;50.860;6.208;2022-11-20T05:47:26;51.37;;;25.30;;
7525;SDS011;3804;50.860;6.208;2022-11-20T05:49:53;49.17;;;24.90;;
7525;SDS011;3804;50.860;6.208;2022-11-20T05:52:20;48.53;;;24.67;;
7525;SDS011;3804;50.860;6.208;2022-11-20T05:54:46;52.23;;;25.20;;
7525;SDS011;3804;50.860;6.208;2022-11-20T05:57:13;47.70;;;23.87;;
7525;SDS011;3804;50.860;6.208;2022-11-20T05:59:40;45.50;;;23.97;;
7525;SDS011;3804;50.860;6.208;2022-11-20T06:02:06;49.97;;;24.67;;
7525;SDS011;3804;50.860;6.208;2022-11-20T06:04:33;51.07;;;24.93;;
7525;SDS011;3804;50.860;6.208;2022-11-20T06:07:00;44.33;;;23.60;;
7525;SDS011;3804;50.860;6.208;2022-11-20T06:09:27;52.80;;;24.60;;
7525;SDS011;3804;50.860;6.208;2022-11-20T06:11:53;52.17;;;24.47;;
7525;SDS011;3804;50.860;6.208;2022-11-20T06:14:20;45.27;;;23.97;;
7525;SDS011;3804;50.860;6.208;2022-11-20T06:16:47;44.97;;;22.33;;
7525;SDS011;3804;50.860;6.208;2022-11-20T06:19:13;53.63;;;24.90;;
7525;SDS011;3804;50.860;6.208;2022-11-20T06:21:41;48.53;;;23.13;;
7525;SDS011;3804;50.860;6.208;2022-11-20T06:24:11;45.37;;;22.47;;
7525;SDS011;3804;50.860;6.208;2022-11-20T06:26:37;40.33;;;21.23;;
7525;SDS011;3804;50.860;6.208;2022-11-20T06:29:04;42.73;;;20.93;;
7525;SDS011;3804;50.860;6.208;2022-11-20T06:31:31;38.87;;;20.37;;
7525;SDS011;3804;50.860;6.208;2022-11-20T06:34:01;35.90;;;18.70;;
7525;SDS011;3804;50.860;6.208;2022-11-20T06:36:27;36.00;;;16.60;;
7525;SDS011;3804;50.860;6.208;2022-11-20T06:38:54;28.77;;;14.83;;
7525;SDS011;3804;50.860;6.208;2022-11-20T06:41:21;30.70;;;16.80;;
7525;SDS011;3804;50.860;6.208;2022-11-20T06:43:48;28.43;;;15.83;;
7525;SDS011;3804;50.860;6.208;2022-11-20T06:46:15;29.50;;;15.87;;
7525;SDS011;3804;50.860;6.208;2022-11-20T06:48:47;26.00;;;15.17;;
7525;SDS011;3804;50.860;6.208;2022-11-20T06:51:14;24.10;;;14.87;;
7525;SDS011;3804;50.860;6.208;2022-11-20T06:53:40;26.77;;;13.53;;
7525;SDS011;3804;50.860;6.208;2022-11-20T06:56:07;30.10;;;16.43;;
7525;SDS011;3804;50.860;6.208;2022-11-20T06:58:34;25.20;;;15.13;;
7525;SDS011;3804;50.860;6.208;2022-11-20T07:01:03;26.33;;;14.83;;
7525;SDS011;3804;50.860;6.208;2022-11-20T07:03:30;23.00;;;14.20;;
7525;SDS011;3804;50.860;6.208;2022-11-20T07:05:57;23.03;;;14.47;;
7525;SDS011;3804;50.860;6.208;2022-11-20T07:08:25;23.97;;;13.63;;
7525;SDS011;3804;50.860;6.208;2022-11-20T07:10:52;22.97;;;14.07;;
7525;SDS011;3804;50.860;6.208;2022-11-20T07:13:18;21.37;;;12.57;;
7525;SDS011;3804;50.860;6.208;2022-11-20T07:15:45;21.50;;;13.03;;
7525;SDS011;3804;50.860;6.208;2022-11-20T07:18:12;22.73;;;14.17;;
7525;SDS011;3804;50.860;6.208;2022-11-20T07:20:38;23.90;;;14.10;;
7525;SDS011;3804;50.860;6.208;2022-11-20T07:23:05;21.07;;;13.07;;
7525;SDS011;3804;50.860;6.208;2022-11-20T07:25:32;23.40;;;14.27;;
7525;SDS011;3804;50.860;6.208;2022-11-20T07:27:59;25.57;;;14.83;;
7525;SDS011;3804;50.860;6.208;2022-11-20T07:30:27;23.73;;;14.20;;
7525;SDS011;3804;50.860;6.208;2022-11-20T07:32:54;25.27;;;15.00;;
7525;SDS011;3804;50.860;6.208;2022-11-20T07:35:22;26.40;;;15.40;;
7525;SDS011;3804;50.860;6.208;2022-11-20T07:37:49;28.33;;;15.10;;
7525;SDS011;3804;50.860;6.208;2022-11-20T07:40:16;24.60;;;14.47;;
7525;SDS011;3804;50.860;6.208;2022-11-20T07:42:49;26.00;;;15.57;;
7525;SDS011;3804;50.860;6.208;2022-11-20T07:45:20;24.17;;;14.17;;
7525;SDS011;3804;50.860;6.208;2022-11-20T07:47:47;28.20;;;15.30;;
7525;SDS011;3804;50.860;6.208;2022-11-20T07:50:14;26.73;;;16.43;;
7525;SDS011;3804;50.860;6.208;2022-11-20T07:52:40;29.33;;;16.27;;
7525;SDS011;3804;50.860;6.208;2022-11-20T07:55:08;30.87;;;15.80;;
7525;SDS011;3804;50.860;6.208;2022-11-20T07:57:35;28.13;;;16.67;;
7525;SDS011;3804;50.860;6.208;2022-11-20T08:00:02;26.67;;;15.73;;
7525;SDS011;3804;50.860;6.208;2022-11-20T08:02:38;29.33;;;17.30;;
7525;SDS011;3804;50.860;6.208;2022-11-20T08:05:06;30.57;;;17.13;;
7525;SDS011;3804;50.860;6.208;2022-11-20T08:07:39;31.70;;;18.30;;
7525;SDS011;3804;50.860;6.208;2022-11-20T08:10:07;33.43;;;17.20;;
7525;SDS011;3804;50.860;6.208;2022-11-20T08:12:34;30.60;;;17.53;;
7525;SDS011;3804;50.860;6.208;2022-11-20T08:15:20;32.77;;;19.07;;
7525;SDS011;3804;50.860;6.208;2022-11-20T08:17:48;33.53;;;18.90;;
7525;SDS011;3804;50.860;6.208;2022-11-20T08:20:35;35.40;;;20.20;;
7525;SDS011;3804;50.860;6.208;2022-11-20T08:23:03;36.63;;;18.23;;
7525;SDS011;3804;50.860;6.208;2022-11-20T08:25:29;32.13;;;19.47;;
7525;SDS011;3804;50.860;6.208;2022-11-20T08:27:57;34.77;;;18.97;;
7525;SDS011;3804;50.860;6.208;2022-11-20T08:30:26;37.27;;;21.47;;
7525;SDS011;3804;50.860;6.208;2022-11-20T08:32:54;30.73;;;18.23;;
7525;SDS011;3804;50.860;6.208;2022-11-20T08:35:21;34.87;;;18.73;;
7525;SDS011;3804;50.860;6.208;2022-11-20T08:37:48;30.13;;;18.67;;
7525;SDS011;3804;50.860;6.208;2022-11-20T08:40:15;34.97;;;19.47;;
7525;SDS011;3804;50.860;6.208;2022-11-20T08:42:45;31.50;;;19.07;;
7525;SDS011;3804;50.860;6.208;2022-11-20T08:45:12;35.83;;;19.60;;
7525;SDS011;3804;50.860;6.208;2022-11-20T08:47:39;32.60;;;19.00;;
7525;SDS011;3804;50.860;6.208;2022-11-20T08:50:06;36.60;;;20.73;;
7525;SDS011;3804;50.860;6.208;2022-11-20T08:52:32;32.30;;;18.83;;
7525;SDS011;3804;50.860;6.208;2022-11-20T08:55:05;31.50;;;19.53;;
7525;SDS011;3804;50.860;6.208;2022-11-20T08:57:35;35.50;;;19.70;;
7525;SDS011;3804;50.860;6.208;2022-11-20T09:00:03;31.37;;;18.80;;
7525;SDS011;3804;50.860;6.208;2022-11-20T09:02:32;33.60;;;18.97;;
7525;SDS011;3804;50.860;6.208;2022-11-20T09:04:59;36.03;;;19.50;;
7525;SDS011;3804;50.860;6.208;2022-11-20T09:07:26;33.90;;;20.07;;
7525;SDS011;3804;50.860;6.208;2022-11-20T09:09:53;32.67;;;20.23;;
7525;SDS011;3804;50.860;6.208;2022-11-20T09:12:40;29.47;;;18.50;;
7525;SDS011;3804;50.860;6.208;2022-11-20T09:15:07;33.13;;;18.37;;
7525;SDS011;3804;50.860;6.208;2022-11-20T09:17:33;31.53;;;19.30;;
7525;SDS011;3804;50.860;6.208;2022-11-20T09:20:00;30.30;;;18.40;;
7525;SDS011;3804;50.860;6.208;2022-11-20T09:22:27;32.80;;;19.20;;
7525;SDS011;3804;50.860;6.208;2022-11-20T09:24:53;31.57;;;18.97;;
7525;SDS011;3804;50.860;6.208;2022-11-20T09:27:20;28.77;;;18.10;;
7525;SDS011;3804;50.860;6.208;2022-11-20T09:29:47;32.97;;;18.77;;
7525;SDS011;3804;50.860;6.208;2022-11-20T09:32:14;31.10;;;18.93;;
7525;SDS011;3804;50.860;6.208;2022-11-20T09:34:41;36.17;;;18.73;;
7525;SDS011;3804;50.860;6.208;2022-11-20T09:37:08;32.30;;;18.33;;
7525;SDS011;3804;50.860;6.208;2022-11-20T09:39:34;31.57;;;18.37;;
7525;SDS011;3804;50.860;6.208;2022-11-20T09:42:09;40.77;;;23.57;;
7525;SDS011;3804;50.860;6.208;2022-11-20T09:49:54;34.67;;;19.67;;
7525;SDS011;3804;50.860;6.208;2022-11-20T09:54:58;34.10;;;18.83;;
7525;SDS011;3804;50.860;6.208;2022-11-20T09:57:46;31.70;;;17.90;;
7525;SDS011;3804;50.860;6.208;2022-11-20T10:00:14;32.17;;;18.97;;
7525;SDS011;3804;50.860;6.208;2022-11-20T10:02:55;32.33;;;18.47;;
7525;SDS011;3804;50.860;6.208;2022-11-20T10:05:25;34.43;;;19.33;;
7525;SDS011;3804;50.860;6.208;2022-11-20T10:10:45;37.73;;;19.30;;
7525;SDS011;3804;50.860;6.208;2022-11-20T10:18:42;33.83;;;17.43;;
7525;SDS011;3804;50.860;6.208;2022-11-20T10:23:45;32.80;;;18.43;;
7525;SDS011;3804;50.860;6.208;2022-11-20T10:26:17;36.40;;;18.90;;
7525;SDS011;3804;50.860;6.208;2022-11-20T10:28:56;35.90;;;18.47;;
7525;SDS011;3804;50.860;6.208;2022-11-20T10:34:01;37.30;;;19.13;;
7525;SDS011;3804;50.860;6.208;2022-11-20T10:36:43;35.30;;;19.47;;
7525;SDS011;3804;50.860;6.208;2022-11-20T10:39:15;34.40;;;18.53;;
7525;SDS011;3804;50.860;6.208;2022-11-20T10:41:43;31.30;;;17.07;;
7525;SDS011;3804;50.860;6.208;2022-11-20T10:44:17;37.17;;;18.53;;
7525;SDS011;3804;50.860;6.208;2022-11-20T10:47:12;32.97;;;17.83;;
7525;SDS011;3804;50.860;6.208;2022-11-20T10:49:39;36.90;;;18.60;;
7525;SDS011;3804;50.860;6.208;2022-11-20T11:00:21;32.13;;;17.33;;
7525;SDS011;3804;50.860;6.208;2022-11-20T11:02:49;32.53;;;17.73;;
7525;SDS011;3804;50.860;6.208;2022-11-20T11:08:01;32.50;;;18.67;;
7525;SDS011;3804;50.860;6.208;2022-11-20T11:13:00;35.27;;;19.37;;
7525;SDS011;3804;50.860;6.208;2022-11-20T11:15:36;33.57;;;18.17;;
7525;SDS011;3804;50.860;6.208;2022-11-20T11:18:03;36.23;;;19.20;;
7525;SDS011;3804;50.860;6.208;2022-11-20T11:20:30;34.10;;;18.63;;
7525;SDS011;3804;50.860;6.208;2022-11-20T11:22:58;35.90;;;18.97;;
7525;SDS011;3804;50.860;6.208;2022-11-20T11:27:52;29.43;;;17.33;;
7525;SDS011;3804;50.860;6.208;2022-11-20T11:30:19;31.87;;;16.87;;
7525;SDS011;3804;50.860;6.208;2022-11-20T11:32:46;29.17;;;16.90;;
7525;SDS011;3804;50.860;6.208;2022-11-20T11:35:26;30.20;;;16.40;;
7525;SDS011;3804;50.860;6.208;2022-11-20T11:38:03;31.13;;;15.60;;
7525;SDS011;3804;50.860;6.208;2022-11-20T11:40:33;27.57;;;15.63;;
7525;SDS011;3804;50.860;6.208;2022-11-20T11:43:02;26.90;;;15.20;;
7525;SDS011;3804;50.860;6.208;2022-11-20T11:45:30;26.43;;;14.47;;
7525;SDS011;3804;50.860;6.208;2022-11-20T11:47:57;25.13;;;15.47;;
7525;SDS011;3804;50.860;6.208;2022-11-20T11:50:25;27.37;;;15.73;;
7525;SDS011;3804;50.860;6.208;2022-11-20T11:53:00;25.23;;;14.13;;
7525;SDS011;3804;50.860;6.208;2022-11-20T11:55:31;25.20;;;14.97;;
7525;SDS011;3804;50.860;6.208;2022-11-20T11:58:08;27.50;;;14.93;;
7525;SDS011;3804;50.860;6.208;2022-11-20T12:00:36;25.50;;;13.77;;
7525;SDS011;3804;50.860;6.208;2022-11-20T12:03:25;24.13;;;14.10;;
7525;SDS011;3804;50.860;6.208;2022-11-20T12:06:15;23.20;;;13.87;;
7525;SDS011;3804;50.860;6.208;2022-11-20T12:08:48;23.80;;;13.30;;
7525;SDS011;3804;50.860;6.208;2022-11-20T12:11:23;22.30;;;12.97;;
7525;SDS011;3804;50.860;6.208;2022-11-20T12:13:54;22.93;;;14.23;;
7525;SDS011;3804;50.860;6.208;2022-11-20T12:16:22;21.67;;;13.40;;
7525;SDS011;3804;50.860;6.208;2022-11-20T12:18:50;18.97;;;12.90;;
7525;SDS011;3804;50.860;6.208;2022-11-20T12:34:52;25.80;;;15.53;;
7525;SDS011;3804;50.860;6.208;2022-11-20T12:39:48;25.30;;;15.23;;
7525;SDS011;3804;50.860;6.208;2022-11-20T12:45:19;25.10;;;15.40;;
7525;SDS011;3804;50.860;6.208;2022-11-20T12:47:56;17.73;;;10.97;;
7525;SDS011;3804;50.860;6.208;2022-11-20T12:50:35;10.17;;;6.90;;
7525;SDS011;3804;50.860;6.208;2022-11-20T12:53:33;11.33;;;6.70;;
7525;SDS011;3804;50.860;6.208;2022-11-20T12:56:29;12.63;;;6.50;;
7525;SDS011;3804;50.860;6.208;2022-11-20T13:01:48;7.63;;;5.63;;
7525;SDS011;3804;50.860;6.208;2022-11-20T13:04:19;11.33;;;5.53;;
7525;SDS011;3804;50.860;6.208;2022-11-20T13:06:50;8.20;;;5.30;;
7525;SDS011;3804;50.860;6.208;2022-11-20T13:09:18;7.63;;;4.53;;
7525;SDS011;3804;50.860;6.208;2022-11-20T13:11:47;6.60;;;4.40;;
7525;SDS011;3804;50.860;6.208;2022-11-20T13:19:38;7.17;;;4.20;;
7525;SDS011;3804;50.860;6.208;2022-11-20T13:22:05;6.03;;;4.30;;
7525;SDS011;3804;50.860;6.208;2022-11-20T13:24:32;5.10;;;4.00;;
7525;SDS011;3804;50.860;6.208;2022-11-20T13:26:59;7.87;;;4.50;;
7525;SDS011;3804;50.860;6.208;2022-11-20T13:29:26;5.87;;;3.70;;
7525;SDS011;3804;50.860;6.208;2022-11-20T13:32:01;5.80;;;3.70;;
7525;SDS011;3804;50.860;6.208;2022-11-20T13:34:33;9.37;;;4.00;;
7525;SDS011;3804;50.860;6.208;2022-11-20T13:37:01;6.37;;;3.50;;
7525;SDS011;3804;50.860;6.208;2022-11-20T13:39:31;6.37;;;3.27;;
7525;SDS011;3804;50.860;6.208;2022-11-20T13:42:00;4.63;;;2.87;;
7525;SDS011;3804;50.860;6.208;2022-11-20T13:44:38;7.53;;;3.23;;
7525;SDS011;3804;50.860;6.208;2022-11-20T13:47:19;7.40;;;3.80;;
7525;SDS011;3804;50.860;6.208;2022-11-20T13:49:46;4.13;;;2.80;;
7525;SDS011;3804;50.860;6.208;2022-11-20T13:52:26;5.87;;;2.37;;
7525;SDS011;3804;50.860;6.208;2022-11-20T13:57:47;7.40;;;2.30;;
7525;SDS011;3804;50.860;6.208;2022-11-20T14:00:17;5.00;;;2.17;;
7525;SDS011;3804;50.860;6.208;2022-11-20T14:02:47;4.90;;;2.10;;
7525;SDS011;3804;50.860;6.208;2022-11-20T14:05:23;4.83;;;2.33;;
7525;SDS011;3804;50.860;6.208;2022-11-20T14:07:50;3.33;;;1.87;;
7525;SDS011;3804;50.860;6.208;2022-11-20T14:10:27;2.27;;;1.90;;
7525;SDS011;3804;50.860;6.208;2022-11-20T14:12:58;3.20;;;2.00;;
7525;SDS011;3804;50.860;6.208;2022-11-20T14:15:26;3.77;;;1.80;;
7525;SDS011;3804;50.860;6.208;2022-11-20T14:17:53;6.80;;;1.80;;
7525;SDS011;3804;50.860;6.208;2022-11-20T14:20:20;3.53;;;1.80;;
7525;SDS011;3804;50.860;6.208;2022-11-20T14:22:49;3.03;;;2.00;;
7525;SDS011;3804;50.860;6.208;2022-11-20T14:27:51;6.63;;;2.87;;
7525;SDS011;3804;50.860;6.208;2022-11-20T14:30:19;6.13;;;2.37;;
7525;SDS011;3804;50.860;6.208;2022-11-20T14:32:46;4.87;;;2.20;;
7525;SDS011;3804;50.860;6.208;2022-11-20T14:35:26;2.90;;;1.70;;
7525;SDS011;3804;50.860;6.208;2022-11-20T14:37:53;6.53;;;2.50;;
7525;SDS011;3804;50.860;6.208;2022-11-20T14:42:50;1.60;;;1.40;;
7525;SDS011;3804;50.860;6.208;2022-11-20T14:45:17;4.90;;;1.43;;
7525;SDS011;3804;50.860;6.208;2022-11-20T14:47:44;3.63;;;1.80;;
7525;SDS011;3804;50.860;6.208;2022-11-20T14:50:19;4.37;;;1.90;;
7525;SDS011;3804;50.860;6.208;2022-11-20T14:52:50;4.97;;;2.00;;
7525;SDS011;3804;50.860;6.208;2022-11-20T14:55:33;3.73;;;2.00;;
7525;SDS011;3804;50.860;6.208;2022-11-20T14:58:18;3.67;;;2.20;;
7525;SDS011;3804;50.860;6.208;2022-11-20T15:00:54;7.40;;;3.27;;
7525;SDS011;3804;50.860;6.208;2022-11-20T15:03:20;8.27;;;5.63;;
7525;SDS011;3804;50.860;6.208;2022-11-20T15:05:48;14.63;;;5.13;;
7525;SDS011;3804;50.860;6.208;2022-11-20T15:08:15;10.60;;;6.97;;
7525;SDS011;3804;50.860;6.208;2022-11-20T15:10:47;9.40;;;4.93;;
7525;SDS011;3804;50.860;6.208;2022-11-20T15:13:16;9.70;;;7.60;;
7525;SDS011;3804;50.860;6.208;2022-11-20T15:18:15;8.17;;;3.57;;
7525;SDS011;3804;50.860;6.208;2022-11-20T15:20:42;6.90;;;3.60;;
7525;SDS011;3804;50.860;6.208;2022-11-20T15:23:11;6.10;;;3.47;;
7525;SDS011;3804;50.860;6.208;2022-11-20T15:25:38;21.13;;;19.00;;
7525;SDS011;3804;50.860;6.208;2022-11-20T15:28:10;6.87;;;4.27;;
7525;SDS011;3804;50.860;6.208;2022-11-20T15:30:39;5.43;;;3.77;;
7525;SDS011;3804;50.860;6.208;2022-11-20T15:33:07;4.53;;;3.70;;
7525;SDS011;3804;50.860;6.208;2022-11-20T15:35:34;7.47;;;3.70;;
7525;SDS011;3804;50.860;6.208;2022-11-20T15:38:01;4.13;;;3.27;;
7525;SDS011;3804;50.860;6.208;2022-11-20T15:40:27;9.97;;;4.73;;
7525;SDS011;3804;50.860;6.208;2022-11-20T15:42:54;9.37;;;5.43;;
7525;SDS011;3804;50.860;6.208;2022-11-20T15:48:15;4.80;;;2.70;;
7525;SDS011;3804;50.860;6.208;2022-11-20T15:50:51;5.53;;;3.50;;
7525;SDS011;3804;50.860;6.208;2022-11-20T15:53:19;4.90;;;3.30;;
7525;SDS011;3804;50.860;6.208;2022-11-20T15:55:45;5.47;;;3.60;;
7525;SDS011;3804;50.860;6.208;2022-11-20T15:58:12;3.50;;;3.20;;
7525;SDS011;3804;50.860;6.208;2022-11-20T16:00:39;4.97;;;3.10;;
7525;SDS011;3804;50.860;6.208;2022-11-20T16:03:08;7.53;;;3.50;;
7525;SDS011;3804;50.860;6.208;2022-11-20T16:05:35;6.63;;;2.80;;
7525;SDS011;3804;50.860;6.208;2022-11-20T16:08:01;7.77;;;3.93;;
7525;SDS011;3804;50.860;6.208;2022-11-20T16:10:35;6.43;;;4.17;;
7525;SDS011;3804;50.860;6.208;2022-11-20T16:13:02;6.57;;;3.37;;
7525;SDS011;3804;50.860;6.208;2022-11-20T16:15:52;3.97;;;2.43;;
7525;SDS011;3804;50.860;6.208;2022-11-20T16:18:20;2.07;;;1.83;;
7525;SDS011;3804;50.860;6.208;2022-11-20T16:20:48;2.50;;;1.83;;
7525;SDS011;3804;50.860;6.208;2022-11-20T16:23:15;2.70;;;1.67;;
7525;SDS011;3804;50.860;6.208;2022-11-20T16:25:42;2.53;;;1.77;;
7525;SDS011;3804;50.860;6.208;2022-11-20T16:28:10;2.73;;;1.80;;